Evenwood, United Kingdom
Current Conditions -  °F | °C
As of 5:20 PM on Friday 21 Nov 2014 (Local Time) from EGNV Reporting Station
Scattered Clouds Scattered Clouds  
Wind Chill: 42°   Ceiling: Unl
Heat Index: 48°   Visibility: 4mi
Dew Point: 41°   Wind: 15mph
Humidity: 76%   Direction: 130°SE
Pressure: 29.97"   Gusts: NA
Location:  54.62°N, 1.76°W
Report Text: EGNV 211720Z 13013KT 6000 SCT025 09/05 Q1015
Loading
Personal Weather Stations






























Interactive Weather Map New forecast layout! Learn more

10-Day Weather Forecast

Advertisements
Track Severe Weather on mobile